Time;durP1;ratioP1;P1;durP2;ratioP2;P2;SDS_P1;SDS_P2;PMS_P1;PMS_P2;Temp;Humidity;BMP_temperature;BMP_pressure;BME280_temperature;BME280_humidity;BME280_pressure;Samples;Min_cycle;Max_cycle;Signal;HPM_P1;HPM_P2
2022/09/13 00:01:37;;;;;;;21.23;16.48;;;17.50;99.90;;;;;;5030241;28;20087;-73
2022/09/13 00:04:03;;;;;;;25.05;17.98;;;17.60;99.90;;;;;;5028969;28;20563;-74
2022/09/13 00:06:29;;;;;;;26.98;18.35;;;17.50;99.90;;;;;;5028787;28;20056;-72
2022/09/13 00:08:55;;;;;;;24.90;17.35;;;17.50;99.90;;;;;;5031343;28;20431;-72
2022/09/13 00:11:25;;;;;;;25.52;18.33;;;17.50;99.90;;;;;;5030064;28;20048;-72
2022/09/13 00:13:52;;;;;;;24.90;18.27;;;17.50;99.90;;;;;;5031033;28;20049;-72
2022/09/13 00:16:20;;;;;;;27.02;19.75;;;17.50;99.90;;;;;;5030171;28;20045;-72
2022/09/13 00:18:46;;;;;;;27.35;19.70;;;17.50;99.90;;;;;;5030874;28;20548;-73
2022/09/13 00:21:14;;;;;;;26.85;19.67;;;17.50;99.90;;;;;;5030103;28;20111;-72
2022/09/13 00:23:43;;;;;;;29.23;20.20;;;17.50;99.90;;;;;;5030190;28;20365;-72
2022/09/13 00:26:13;;;;;;;26.17;19.45;;;17.50;99.90;;;;;;5030904;28;20054;-72
2022/09/13 00:28:39;;;;;;;31.15;20.48;;;17.50;99.90;;;;;;5029996;28;20049;-73
2022/09/13 00:31:06;;;;;;;27.83;20.65;;;17.50;99.90;;;;;;5029975;28;20041;-73
2022/09/13 00:33:33;;;;;;;28.23;20.40;;;17.40;99.90;;;;;;5030887;28;20080;-72
2022/09/13 00:36:03;;;;;;;29.60;21.60;;;17.50;99.90;;;;;;5029796;28;20494;-73
2022/09/13 00:38:29;;;;;;;30.38;20.38;;;17.50;99.90;;;;;;5029702;28;20053;-73
2022/09/13 00:40:54;;;;;;;31.23;21.98;;;17.50;99.90;;;;;;5029513;28;20050;-73
2022/09/13 00:43:42;;;;;;;31.65;22.02;;;17.50;99.90;;;;;;5029681;28;20049;-73
2022/09/13 00:46:08;;;;;;;29.75;22.15;;;17.50;99.90;;;;;;5029684;28;20053;-73
2022/09/13 00:48:35;;;;;;;26.52;21.35;;;17.50;99.90;;;;;;5029637;28;20072;-72
2022/09/13 00:51:02;;;;;;;30.75;20.13;;;17.50;99.90;;;;;;5036536;28;20396;-73
2022/09/13 00:53:31;;;;;;;25.77;18.98;;;17.50;99.90;;;;;;5049687;28;20381;-73
2022/09/13 00:56:23;;;;;;;24.73;18.73;;;17.40;99.90;;;;;;5047805;28;20167;-73
2022/09/13 00:59:11;;;;;;;24.52;16.95;;;17.50;99.90;;;;;;5049782;28;20083;-74
2022/09/13 01:01:43;;;;;;;22.73;15.68;;;17.40;99.90;;;;;;5048979;28;20057;-73
2022/09/13 01:04:08;;;;;;;20.45;15.85;;;17.50;99.90;;;;;;5050708;28;20056;-73
2022/09/13 01:06:37;;;;;;;23.60;15.50;;;17.50;99.90;;;;;;5051621;28;20052;-73
2022/09/13 01:09:04;;;;;;;21.10;14.88;;;17.40;99.90;;;;;;5053473;28;20123;-73
2022/09/13 01:11:35;;;;;;;20.92;14.52;;;17.40;99.90;;;;;;5052894;28;20424;-73
2022/09/13 01:14:01;;;;;;;20.77;14.93;;;17.40;99.90;;;;;;5051208;28;20076;-73
2022/09/13 01:16:27;;;;;;;23.33;14.95;;;17.40;99.90;;;;;;5051866;28;20053;-73
2022/09/13 01:18:53;;;;;;;20.98;15.43;;;17.50;99.90;;;;;;5053142;28;20107;-73
2022/09/13 01:21:49;;;;;;;19.08;14.65;;;17.50;99.90;;;;;;5051266;28;20079;-73
2022/09/13 01:24:38;;;;;;;20.63;14.43;;;17.40;99.90;;;;;;5052787;28;20044;-72
2022/09/13 01:27:10;;;;;;;18.85;14.27;;;17.40;99.90;;;;;;5052676;28;20049;-72
2022/09/13 01:30:08;;;;;;;18.45;13.63;;;17.40;99.90;;;;;;5052932;28;20062;-73
2022/09/13 01:32:59;;;;;;;18.55;13.90;;;17.40;99.90;;;;;;5051516;28;20068;-73
2022/09/13 01:35:35;;;;;;;17.90;13.32;;;17.40;99.90;;;;;;5052952;28;20053;-73
2022/09/13 01:38:12;;;;;;;18.60;12.80;;;17.40;99.90;;;;;;5034087;28;20064;-74
2022/09/13 01:40:57;;;;;;;16.25;12.57;;;17.40;99.90;;;;;;5052786;28;20049;-73
2022/09/13 01:43:35;;;;;;;18.15;12.38;;;17.40;99.90;;;;;;5051874;28;20495;-73
2022/09/13 01:46:24;;;;;;;15.43;12.10;;;17.40;99.90;;;;;;5052969;28;20389;-73
2022/09/13 01:49:08;;;;;;;17.73;12.88;;;17.40;99.90;;;;;;5052918;28;20144;-73
2022/09/13 01:51:43;;;;;;;15.15;11.68;;;17.40;99.90;;;;;;5051266;28;20132;-72
2022/09/13 01:54:16;;;;;;;20.95;13.05;;;17.40;99.90;;;;;;5012859;28;20088;-73
2022/09/13 01:56:58;;;;;;;20.30;12.38;;;17.40;99.90;;;;;;5013034;28;20148;-73
2022/09/13 01:59:45;;;;;;;15.18;11.63;;;17.30;99.90;;;;;;5012364;28;20124;-73
2022/09/13 02:02:45;;;;;;;18.98;11.90;;;17.30;99.90;;;;;;5043432;28;20041;-72
2022/09/13 02:05:25;;;;;;;16.02;12.02;;;17.30;99.90;;;;;;4990388;28;20101;-72
2022/09/13 02:08:01;;;;;;;16.90;12.63;;;17.30;99.90;;;;;;4990254;28;20484;-73
2022/09/13 02:10:37;;;;;;;17.15;11.95;;;17.30;99.90;;;;;;4973508;28;20200;-73
2022/09/13 02:13:06;;;;;;;18.48;11.75;;;17.20;99.90;;;;;;5007892;28;20659;-73
2022/09/13 02:15:47;;;;;;;18.00;12.32;;;17.30;99.90;;;;;;4990901;28;20081;-72
2022/09/13 02:18:24;;;;;;;17.80;12.70;;;17.30;99.90;;;;;;5009801;28;20116;-73
2022/09/13 02:20:53;;;;;;;19.98;12.68;;;17.20;99.90;;;;;;5009036;28;20092;-72
2022/09/13 02:23:28;;;;;;;16.77;11.77;;;17.20;99.90;;;;;;5009062;28;20440;-73
2022/09/13 02:25:58;;;;;;;17.30;11.98;;;17.30;99.90;;;;;;5008954;28;20413;-72
2022/09/13 02:28:32;;;;;;;17.35;12.68;;;17.20;99.90;;;;;;5005007;28;20057;-73
2022/09/13 02:30:59;;;;;;;20.05;13.30;;;17.20;99.90;;;;;;5008785;28;20046;-73
2022/09/13 02:33:36;;;;;;;19.45;13.40;;;17.20;99.90;;;;;;5009078;28;20092;-72
2022/09/13 02:36:07;;;;;;;18.38;12.18;;;17.20;99.90;;;;;;5009478;28;20057;-73
2022/09/13 02:38:44;;;;;;;17.63;12.13;;;17.20;99.90;;;;;;5009321;28;20449;-72
2022/09/13 02:41:16;;;;;;;18.20;12.88;;;17.20;99.90;;;;;;5013290;28;20571;-71
2022/09/13 02:43:48;;;;;;;16.88;11.95;;;17.20;99.90;;;;;;5042644;28;20080;-72
2022/09/13 02:46:42;;;;;;;15.57;12.10;;;17.20;99.90;;;;;;5031240;28;20044;-72
2022/09/13 02:49:14;;;;;;;17.95;12.43;;;17.20;99.90;;;;;;5031474;28;20046;-73
2022/09/13 02:51:59;;;;;;;18.73;13.02;;;17.20;99.90;;;;;;5035935;28;20052;-72
2022/09/13 02:54:43;;;;;;;20.75;13.95;;;17.30;99.90;;;;;;5049597;28;20049;-73
2022/09/13 02:57:35;;;;;;;18.20;13.57;;;17.30;99.90;;;;;;5051393;28;20817;-72
2022/09/13 03:00:01;;;;;;;23.95;15.13;;;17.30;99.90;;;;;;5051337;28;20404;-73
2022/09/13 03:02:33;;;;;;;19.75;14.10;;;17.30;99.90;;;;;;5050848;28;20044;-73
2022/09/13 03:05:00;;;;;;;17.42;12.82;;;17.30;99.90;;;;;;5049403;28;20090;-73
2022/09/13 03:07:26;;;;;;;21.27;14.85;;;17.30;99.90;;;;;;5050982;28;20048;-74
2022/09/13 03:10:04;;;;;;;19.90;13.40;;;17.30;99.90;;;;;;5051327;28;20049;-73
2022/09/13 03:12:40;;;;;;;18.48;13.00;;;17.30;99.90;;;;;;5048135;28;20037;-73
2022/09/13 03:15:42;;;;;;;19.60;13.35;;;17.30;99.90;;;;;;5048174;28;20049;-73
2022/09/13 03:18:30;;;;;;;16.83;11.18;;;17.40;99.90;;;;;;5030711;28;20057;-74
2022/09/13 03:21:17;;;;;;;10.13;7.25;;;17.50;99.90;;;;;;5030900;28;20053;-74
2022/09/13 03:24:06;;;;;;;10.18;5.78;;;17.40;99.90;;;;;;5030982;28;20132;-73
2022/09/13 03:26:45;;;;;;;7.72;4.70;;;17.30;99.90;;;;;;5031336;28;20061;-73
2022/09/13 03:29:46;;;;;;;7.05;3.58;;;17.30;99.90;;;;;;5030861;28;20104;-73
2022/09/13 03:32:27;;;;;;;4.63;2.25;;;17.30;99.90;;;;;;5030473;28;20053;-73
2022/09/13 03:35:14;;;;;;;4.68;2.20;;;17.30;99.90;;;;;;5030853;28;20060;-73
2022/09/13 03:37:55;;;;;;;4.00;1.65;;;17.30;99.90;;;;;;5031548;28;20045;-73
2022/09/13 03:40:44;;;;;;;3.80;1.90;;;17.30;99.90;;;;;;5030614;28;20053;-73
2022/09/13 03:43:16;;;;;;;4.70;2.03;;;17.30;99.90;;;;;;5031467;28;20045;-72
2022/09/13 03:45:48;;;;;;;3.03;1.48;;;17.20;99.90;;;;;;5030389;28;20057;-72
2022/09/13 03:48:15;;;;;;;4.47;1.70;;;17.30;99.90;;;;;;5029215;28;20041;-72
2022/09/13 03:50:42;;;;;;;2.65;1.50;;;17.30;99.90;;;;;;5030491;28;20052;-73
2022/09/13 03:53:12;;;;;;;2.88;1.38;;;17.30;99.90;;;;;;5030461;28;20503;-73
2022/09/13 03:55:40;;;;;;;2.60;1.40;;;17.30;99.90;;;;;;5030551;28;20172;-72
2022/09/13 03:58:12;;;;;;;2.42;1.30;;;17.30;99.90;;;;;;5031556;28;20400;-73
2022/09/13 04:00:39;;;;;;;4.45;1.33;;;17.30;99.90;;;;;;5030351;28;20045;-72
2022/09/13 04:03:05;;;;;;;3.13;1.20;;;17.30;99.90;;;;;;5030331;28;20041;-72
2022/09/13 04:05:30;;;;;;;4.00;1.70;;;17.30;99.90;;;;;;5029993;28;20068;-72
2022/09/13 04:07:56;;;;;;;4.50;1.92;;;17.30;99.90;;;;;;5031191;28;20052;-72
2022/09/13 04:10:23;;;;;;;3.90;2.08;;;17.30;99.90;;;;;;5030108;28;20041;-73
2022/09/13 04:12:49;;;;;;;3.72;1.80;;;17.30;99.90;;;;;;5031193;28;20115;-73
2022/09/13 04:15:15;;;;;;;2.78;1.65;;;17.30;99.90;;;;;;5030206;28;20037;-72
2022/09/13 04:17:40;;;;;;;4.75;1.90;;;17.30;99.90;;;;;;5030015;28;20092;-72
2022/09/13 04:20:06;;;;;;;5.63;2.15;;;17.30;99.90;;;;;;5030654;28;20081;-73
2022/09/13 04:22:32;;;;;;;3.50;1.92;;;17.30;99.90;;;;;;5029856;28;20121;-72
2022/09/13 04:24:58;;;;;;;5.70;2.28;;;17.30;99.90;;;;;;5048158;28;20064;-73
2022/09/13 04:27:24;;;;;;;4.95;1.98;;;17.30;99.90;;;;;;5049894;28;20407;-73
2022/09/13 04:29:50;;;;;;;4.40;1.90;;;17.30;99.90;;;;;;5048290;28;20052;-73
2022/09/13 04:32:15;;;;;;;4.93;2.05;;;17.30;99.90;;;;;;5049806;28;20049;-73
2022/09/13 04:34:41;;;;;;;4.38;1.50;;;17.30;99.90;;;;;;5049470;28;20057;-73
2022/09/13 04:37:08;;;;;;;3.72;1.80;;;17.30;99.90;;;;;;5049620;28;20171;-73
2022/09/13 04:39:33;;;;;;;3.05;1.70;;;17.20;99.90;;;;;;5049665;28;20056;-72
2022/09/13 04:41:59;;;;;;;6.00;1.38;;;17.20;99.90;;;;;;5053254;28;20745;-74
2022/09/13 04:44:25;;;;;;;6.45;1.38;;;17.30;99.90;;;;;;5053847;28;20052;-74
2022/09/13 04:46:50;;;;;;;6.85;1.40;;;17.20;99.90;;;;;;5053486;28;20044;-72
2022/09/13 04:49:16;;;;;;;5.65;1.55;;;17.20;99.90;;;;;;5053853;28;20037;-73
2022/09/13 04:51:42;;;;;;;4.47;1.45;;;17.20;99.90;;;;;;5051674;28;20049;-72
2022/09/13 04:54:10;;;;;;;7.35;1.60;;;17.20;99.90;;;;;;5053492;28;20903;-73
2022/09/13 04:56:36;;;;;;;6.38;1.73;;;17.20;99.90;;;;;;5053051;28;20061;-73
2022/09/13 04:59:01;;;;;;;4.80;1.35;;;17.20;99.90;;;;;;5052296;28;20076;-72
2022/09/13 05:01:27;;;;;;;4.75;1.13;;;17.20;99.90;;;;;;5051932;28;20087;-73
2022/09/13 05:03:53;;;;;;;2.95;1.05;;;17.10;99.90;;;;;;5053308;28;20049;-73
2022/09/13 05:06:19;;;;;;;8.77;1.67;;;17.10;99.90;;;;;;5053230;28;20045;-73
2022/09/13 05:08:54;;;;;;;6.40;1.63;;;17.00;99.90;;;;;;5053361;28;20132;-73
2022/09/13 05:11:24;;;;;;;6.93;1.35;;;17.10;99.90;;;;;;5051240;28;20476;-73
2022/09/13 05:13:53;;;;;;;4.30;1.73;;;17.10;99.90;;;;;;5051572;28;20044;-72
2022/09/13 05:16:19;;;;;;;8.10;1.30;;;17.10;99.90;;;;;;5053140;28;20068;-73
2022/09/13 05:18:44;;;;;;;5.50;1.10;;;17.10;99.90;;;;;;5053451;28;20730;-73
2022/09/13 05:21:10;;;;;;;5.85;1.45;;;17.10;99.90;;;;;;5053364;28;20041;-73
2022/09/13 05:23:37;;;;;;;6.63;1.08;;;17.10;99.90;;;;;;5051488;28;20124;-73
2022/09/13 05:26:04;;;;;;;7.20;0.98;;;17.00;99.90;;;;;;5052980;28;20128;-74
2022/09/13 05:28:32;;;;;;;5.05;1.17;;;17.10;99.90;;;;;;5051836;28;20059;-73
2022/09/13 05:31:15;;;;;;;4.63;1.00;;;17.00;99.90;;;;;;5053126;28;20041;-73
2022/09/13 05:33:41;;;;;;;4.65;1.10;;;17.10;99.90;;;;;;5051167;28;20063;-74
2022/09/13 05:36:07;;;;;;;5.13;1.00;;;17.00;99.90;;;;;;5052417;28;20048;-74
2022/09/13 05:38:33;;;;;;;4.85;1.40;;;17.00;99.90;;;;;;5052375;28;20132;-74
2022/09/13 05:41:00;;;;;;;6.75;1.13;;;16.90;99.90;;;;;;5052975;28;20049;-73
2022/09/13 05:43:29;;;;;;;6.25;1.20;;;17.00;99.90;;;;;;5051151;28;20033;-73
2022/09/13 05:46:10;;;;;;;8.25;1.50;;;17.00;99.90;;;;;;5052527;28;20041;-74
2022/09/13 05:48:36;;;;;;;7.75;1.30;;;17.00;99.90;;;;;;5053139;28;20091;-74
2022/09/13 05:51:16;;;;;;;9.68;1.80;;;17.00;99.90;;;;;;5052215;28;20483;-74
2022/09/13 05:53:45;;;;;;;4.53;1.20;;;17.00;99.90;;;;;;5050765;28;20049;-74
2022/09/13 05:56:12;;;;;;;8.43;1.65;;;17.00;99.90;;;;;;5052754;28;20041;-73
2022/09/13 05:58:40;;;;;;;4.43;1.65;;;17.00;99.90;;;;;;5052442;28;20041;-73
2022/09/13 06:01:06;;;;;;;6.38;1.50;;;17.00;99.90;;;;;;5052507;28;20430;-73
2022/09/13 06:03:31;;;;;;;9.15;1.45;;;17.00;99.90;;;;;;5052567;28;20048;-73
2022/09/13 06:05:57;;;;;;;6.15;1.38;;;17.00;99.90;;;;;;5050656;28;20099;-73
2022/09/13 06:08:25;;;;;;;4.93;1.33;;;17.00;99.90;;;;;;5052148;28;20049;-73
2022/09/13 06:10:58;;;;;;;6.25;1.30;;;17.00;99.90;;;;;;5052375;28;20049;-74
2022/09/13 06:13:25;;;;;;;7.18;1.60;;;17.10;99.90;;;;;;5050536;28;20561;-73
2022/09/13 06:15:51;;;;;;;7.15;1.63;;;17.10;99.90;;;;;;5050035;28;20512;-74
2022/09/13 06:18:17;;;;;;;8.85;1.70;;;17.10;99.90;;;;;;5047966;28;20041;-73
2022/09/13 06:20:43;;;;;;;8.75;1.63;;;17.10;99.90;;;;;;5032197;28;20506;-73
2022/09/13 06:23:08;;;;;;;9.20;1.90;;;17.10;99.90;;;;;;5032217;28;20095;-72
2022/09/13 06:25:34;;;;;;;7.93;1.90;;;17.10;99.90;;;;;;5031552;28;20057;-73
2022/09/13 06:28:00;;;;;;;6.90;1.75;;;17.20;99.90;;;;;;5033171;28;20124;-72
2022/09/13 06:30:25;;;;;;;10.20;2.13;;;17.20;99.90;;;;;;5048323;28;20128;-73
2022/09/13 06:32:51;;;;;;;7.65;1.50;;;17.20;99.90;;;;;;5051867;28;20582;-72
2022/09/13 06:35:16;;;;;;;6.22;1.35;;;17.20;99.90;;;;;;5051942;28;20131;-72
2022/09/13 06:37:42;;;;;;;4.25;1.27;;;17.20;99.90;;;;;;5044065;28;20579;-72
2022/09/13 06:40:08;;;;;;;4.95;1.40;;;17.30;99.90;;;;;;5032951;28;20463;-73
2022/09/13 06:42:35;;;;;;;6.35;1.65;;;17.40;99.90;;;;;;5032136;28;20091;-72
2022/09/13 06:45:02;;;;;;;6.20;1.70;;;17.40;99.90;;;;;;5031836;28;20052;-74
2022/09/13 06:47:27;;;;;;;10.45;2.10;;;17.40;99.90;;;;;;5037375;28;20456;-73
2022/09/13 06:49:53;;;;;;;8.70;1.83;;;17.50;99.90;;;;;;5049878;28;20144;-73
2022/09/13 06:52:18;;;;;;;6.03;1.50;;;17.50;99.90;;;;;;5052009;28;20124;-73
2022/09/13 06:54:44;;;;;;;5.25;1.60;;;17.50;99.90;;;;;;5051597;28;20041;-73
2022/09/13 06:57:10;;;;;;;11.18;1.95;;;17.50;99.90;;;;;;5049766;28;20488;-73
2022/09/13 06:59:36;;;;;;;8.55;1.90;;;17.60;99.90;;;;;;5049779;28;20073;-72
2022/09/13 07:02:01;;;;;;;7.15;1.98;;;17.60;99.90;;;;;;5022400;28;20553;-73
2022/09/13 07:04:30;;;;;;;7.05;1.80;;;17.70;99.90;;;;;;5011565;28;20046;-73
2022/09/13 07:06:57;;;;;;;7.20;1.73;;;17.70;99.90;;;;;;5011355;28;20919;-72
2022/09/13 07:09:23;;;;;;;8.45;1.23;;;17.80;99.90;;;;;;5012581;28;20061;-72
2022/09/13 07:11:52;;;;;;;6.68;1.40;;;17.80;99.90;;;;;;5030484;28;20049;-73
2022/09/13 07:14:20;;;;;;;9.57;1.40;;;17.80;99.90;;;;;;5031178;28;20095;-73
2022/09/13 07:16:46;;;;;;;9.00;1.50;;;17.80;99.90;;;;;;5031093;28;20092;-73
2022/09/13 07:19:17;;;;;;;5.65;0.93;;;17.80;99.90;;;;;;5030919;28;20080;-74
2022/09/13 07:21:43;;;;;;;6.03;1.13;;;17.80;99.90;;;;;;5031935;28;20456;-74
2022/09/13 07:24:09;;;;;;;4.03;1.10;;;17.90;99.90;;;;;;5030842;28;20489;-73
2022/09/13 07:26:35;;;;;;;12.05;0.75;;;17.80;99.90;;;;;;5030387;28;20064;-74
2022/09/13 07:29:04;;;;;;;7.47;0.82;;;17.80;99.90;;;;;;5030702;28;20056;-73
2022/09/13 07:31:36;;;;;;;3.63;0.75;;;17.80;99.90;;;;;;5031874;28;20812;-74
2022/09/13 07:34:04;;;;;;;5.28;0.95;;;17.70;99.90;;;;;;5030548;28;20041;-73
2022/09/13 07:36:32;;;;;;;9.40;1.25;;;17.70;99.90;;;;;;5030969;28;20053;-73
2022/09/13 07:38:58;;;;;;;7.97;0.60;;;17.70;99.90;;;;;;5047132;28;20074;-74
2022/09/13 07:41:26;;;;;;;8.73;0.90;;;17.80;99.90;;;;;;5049234;28;20044;-74
2022/09/13 07:43:52;;;;;;;13.27;2.03;;;17.70;99.90;;;;;;5050054;28;20041;-74
2022/09/13 07:46:32;;;;;;;4.82;0.90;;;17.80;99.90;;;;;;5050776;28;20044;-74
2022/09/13 07:48:59;;;;;;;7.68;1.05;;;17.90;99.90;;;;;;5050830;28;20084;-74
2022/09/13 07:51:27;;;;;;;7.70;0.95;;;17.90;99.90;;;;;;5049044;28;20130;-74
2022/09/13 07:53:58;;;;;;;5.85;0.80;;;18.00;99.90;;;;;;5050437;28;20045;-80
2022/09/13 07:56:29;;;;;;;5.25;0.95;;;18.10;99.90;;;;;;5050425;28;20052;-74
2022/09/13 07:58:57;;;;;;;8.43;1.00;;;18.10;99.90;;;;;;5050317;28;20135;-74
2022/09/13 08:01:25;;;;;;;5.57;0.82;;;18.10;99.90;;;;;;5050303;28;20052;-72
2022/09/13 08:03:53;;;;;;;2.72;0.50;;;18.10;99.90;;;;;;5050168;28;20049;-75
2022/09/13 08:06:19;;;;;;;6.28;0.60;;;18.20;99.90;;;;;;5050613;28;20029;-77
2022/09/13 08:08:45;;;;;;;6.45;0.52;;;18.10;99.90;;;;;;5049085;28;20515;-75
2022/09/13 08:11:18;;;;;;;4.57;0.80;;;18.10;99.90;;;;;;5050770;28;20041;-74
2022/09/13 08:13:45;;;;;;;5.30;0.70;;;18.30;99.90;;;;;;5050474;28;20049;-78
2022/09/13 08:16:12;;;;;;;8.23;1.23;;;18.40;99.90;;;;;;5040849;28;20049;-74
2022/09/13 08:18:43;;;;;;;4.88;0.90;;;18.60;99.90;;;;;;5030833;28;20045;-75
2022/09/13 08:21:08;;;;;;;8.60;1.00;;;18.70;99.90;;;;;;5031980;28;20048;-77
2022/09/13 08:23:34;;;;;;;5.57;0.70;;;18.80;99.90;;;;;;5030661;28;20042;-76
2022/09/13 08:26:01;;;;;;;5.75;0.90;;;18.70;99.90;;;;;;5030182;28;20408;-75
2022/09/13 08:28:27;;;;;;;6.85;0.73;;;18.90;99.90;;;;;;5030437;28;20070;-77
2022/09/13 08:30:52;;;;;;;14.02;1.50;;;18.80;99.90;;;;;;5029437;28;20595;-75
2022/09/13 08:33:18;;;;;;;6.95;0.60;;;18.90;99.90;;;;;;5029933;28;20124;-79
2022/09/13 08:35:51;;;;;;;6.38;1.15;;;19.00;99.90;;;;;;5029916;28;20443;-76
2022/09/13 08:38:17;;;;;;;6.05;0.60;;;18.90;99.90;;;;;;5030828;28;20056;-77
2022/09/13 08:40:50;;;;;;;7.43;0.90;;;19.10;99.90;;;;;;5029677;28;20057;-77
2022/09/13 08:43:34;;;;;;;9.60;0.95;;;19.20;99.90;;;;;;5029739;28;20037;-76
2022/09/13 08:46:24;;;;;;;5.70;0.80;;;19.20;99.90;;;;;;5028463;28;20110;-76
2022/09/13 08:48:53;;;;;;;9.48;1.20;;;19.40;99.90;;;;;;5034646;28;20053;-77
2022/09/13 08:51:31;;;;;;;8.18;0.85;;;19.60;99.90;;;;;;5019787;28;20038;-77
2022/09/13 08:53:58;;;;;;;6.68;0.75;;;19.70;99.90;;;;;;5009172;28;20046;-79
2022/09/13 08:56:42;;;;;;;7.32;1.13;;;20.00;99.90;;;;;;5031618;28;20099;-78
2022/09/13 08:59:17;;;;;;;6.13;0.70;;;20.10;99.90;;;;;;5029831;28;20049;-79
2022/09/13 09:01:46;;;;;;;;;;;20.10;99.90;;;;;;5029774;28;20073;-78
2022/09/13 09:04:25;;;;;;;6.80;1.08;;;20.10;99.90;;;;;;5029971;28;19928;-77
2022/09/13 09:07:03;;;;;;;5.43;0.68;;;20.00;99.90;;;;;;5029695;28;20049;-79
2022/09/13 09:09:36;;;;;;;6.75;1.10;;;20.00;99.90;;;;;;5030917;28;20053;-79
2022/09/13 09:12:26;;;;;;;8.13;1.02;;;19.60;99.90;;;;;;5029648;28;20049;-79
2022/09/13 09:15:25;;;;;;;9.90;0.90;;;19.30;99.90;;;;;;5040390;28;20095;-78
2022/09/13 09:18:06;;;;;;;11.30;1.40;;;19.50;99.90;;;;;;5049346;28;20045;-77
2022/09/13 09:20:41;;;;;;;7.53;0.90;;;19.90;99.90;;;;;;5049681;28;20056;-77
2022/09/13 09:23:11;;;;;;;;;;;20.10;99.90;;;;;;5049629;28;20045;-78
2022/09/13 09:25:38;;;;;;;7.53;0.93;;;20.30;99.90;;;;;;5049143;28;20363;-81
2022/09/13 09:28:15;;;;;;;6.05;0.75;;;20.50;99.90;;;;;;5052908;28;20051;-77
2022/09/13 09:31:03;;;;;;;6.15;0.80;;;20.70;99.90;;;;;;5052890;28;20056;-75
2022/09/13 09:33:50;;;;;;;6.72;0.90;;;20.90;99.90;;;;;;5052935;28;20048;-78
2022/09/13 09:36:39;;;;;;;6.05;0.98;;;20.90;99.90;;;;;;5051160;28;20045;-78
2022/09/13 09:39:10;;;;;;;3.45;0.45;;;20.90;99.90;;;;;;5051462;28;20053;-77
2022/09/13 09:41:37;;;;;;;9.88;1.30;;;21.00;99.90;;;;;;5052826;28;20049;-76
2022/09/13 09:44:18;;;;;;;6.90;0.77;;;21.40;99.90;;;;;;5051139;28;20044;-81
2022/09/13 09:46:50;;;;;;;5.57;0.63;;;21.60;99.90;;;;;;5052256;28;20553;-78
2022/09/13 09:52:14;;;;;;;9.05;1.13;;;22.00;99.90;;;;;;5052692;28;20060;-76
2022/09/13 09:54:40;;;;;;;6.82;0.70;;;21.60;99.90;;;;;;5050421;28;20041;-81
2022/09/13 09:57:06;;;;;;;4.82;0.75;;;21.40;99.90;;;;;;5052390;28;20125;-78
2022/09/13 09:59:33;;;;;;;9.05;0.75;;;21.40;99.90;;;;;;5052473;28;20045;-76
2022/09/13 10:02:03;;;;;;;5.20;0.70;;;21.20;99.90;;;;;;5052580;28;20048;-78
2022/09/13 10:04:29;;;;;;;4.43;0.77;;;21.30;99.90;;;;;;5050751;28;20049;-76
2022/09/13 10:07:33;;;;;;;6.63;0.88;;;21.50;99.90;;;;;;5052088;28;20041;-76
2022/09/13 10:10:05;;;;;;;4.88;0.60;;;21.80;99.90;;;;;;5052133;28;20095;-77
2022/09/13 10:12:34;;;;;;;7.90;1.60;;;22.10;99.90;;;;;;5051239;28;20499;-80
2022/09/13 10:15:19;;;;;;;6.50;0.70;;;22.00;99.90;;;;;;5050370;28;20545;-80
2022/09/13 10:18:15;;;;;;;8.18;1.15;;;21.70;99.90;;;;;;5050614;28;20063;-79
2022/09/13 10:20:41;;;;;;;7.03;1.13;;;21.70;99.90;;;;;;5052398;28;20052;-79
2022/09/13 10:23:18;;;;;;;5.30;0.70;;;22.00;99.90;;;;;;5050655;28;20066;-79
2022/09/13 10:25:56;;;;;;;5.10;0.77;;;21.90;99.90;;;;;;5050290;28;20060;-82
2022/09/13 10:28:23;;;;;;;9.27;0.93;;;21.70;99.90;;;;;;5048690;28;20057;-76
2022/09/13 10:30:56;;;;;;;2.88;0.60;;;21.60;99.90;;;;;;5043556;28;20052;-76
2022/09/13 10:33:25;;;;;;;6.00;1.40;;;21.60;99.90;;;;;;5031884;28;20052;-80
2022/09/13 10:35:54;;;;;;;7.03;0.82;;;21.60;99.90;;;;;;5046736;28;20370;-79
2022/09/13 10:38:30;;;;;;;5.47;0.60;;;21.70;99.90;;;;;;5051161;28;20049;-76
2022/09/13 10:40:58;;;;;;;4.60;0.88;;;21.90;99.90;;;;;;5051571;28;20049;-80
2022/09/13 10:43:27;;;;;;;5.45;1.08;;;22.00;99.90;;;;;;5048442;28;20037;-78
2022/09/13 10:45:54;;;;;;;6.00;0.80;;;22.20;99.90;;;;;;5050452;28;20135;-79
2022/09/13 10:48:20;;;;;;;5.75;1.10;;;22.40;99.90;;;;;;5051590;28;20514;-80
2022/09/13 10:51:06;;;;;;;7.82;0.80;;;22.30;99.90;;;;;;5049549;28;20044;-81
2022/09/13 10:53:40;;;;;;;4.72;0.65;;;22.50;99.90;;;;;;5051076;28;20052;-84
2022/09/13 10:56:24;;;;;;;5.13;1.05;;;22.30;99.90;;;;;;5051446;28;20056;-78
2022/09/13 10:58:50;;;;;;;3.88;0.68;;;22.20;99.90;;;;;;5051448;28;20051;-80
2022/09/13 11:01:37;;;;;;;4.03;0.60;;;22.30;99.90;;;;;;5049738;28;20072;-79
2022/09/13 11:04:31;;;;;;;6.53;0.70;;;22.40;99.90;;;;;;5050123;28;20127;-80
2022/09/13 11:07:11;;;;;;;4.55;0.70;;;22.40;99.90;;;;;;5051162;28;20084;-81
2022/09/13 11:09:58;;;;;;;4.97;0.50;;;22.70;99.90;;;;;;5051066;28;20480;-83
2022/09/13 11:12:43;;;;;;;5.10;0.98;;;23.00;99.90;;;;;;5048319;28;20391;-83
2022/09/13 11:15:47;;;;;;;3.47;0.40;;;23.10;99.80;;;;;;5037587;28;20523;-78
2022/09/13 11:18:34;;;;;;;6.00;0.70;;;23.30;99.90;;;;;;4969649;28;20432;-83
2022/09/13 11:20:59;;;;;;;9.20;1.33;;;23.10;99.90;;;;;;4969208;28;20058;-78
2022/09/13 11:23:25;;;;;;;4.85;0.85;;;23.00;99.90;;;;;;4953757;28;20043;-80
2022/09/13 11:26:21;;;;;;;2.90;0.85;;;23.40;99.90;;;;;;4969886;28;20069;-78
2022/09/13 11:29:19;;;;;;;10.57;1.30;;;23.30;99.90;;;;;;4969434;28;20133;-81
2022/09/13 11:32:14;;;;;;;5.40;0.70;;;23.20;99.90;;;;;;4980297;28;20057;-78
2022/09/13 11:35:18;;;;;;;3.28;0.80;;;23.10;99.90;;;;;;4931173;29;20067;-78
2022/09/13 11:38:04;;;;;;;4.93;0.52;;;23.30;99.90;;;;;;4874746;29;20068;-79
2022/09/13 11:40:57;;;;;;;5.95;0.60;;;23.60;99.90;;;;;;4873802;29;20060;-78
2022/09/13 11:43:36;;;;;;;2.65;0.30;;;23.40;99.90;;;;;;4855801;29;20046;-78
2022/09/13 11:46:16;;;;;;;5.80;0.70;;;23.40;99.60;;;;;;4875086;29;20436;-78
2022/09/13 11:48:52;;;;;;;4.63;0.63;;;23.20;99.80;;;;;;4885208;29;20056;-77
2022/09/13 11:51:41;;;;;;;3.92;0.60;;;23.30;99.90;;;;;;4877937;29;20061;-75
2022/09/13 11:54:38;;;;;;;6.15;0.60;;;23.20;99.60;;;;;;4888856;29;20136;-80
2022/09/13 11:57:12;;;;;;;9.88;1.13;;;23.00;98.50;;;;;;4837055;29;20058;-81
2022/09/13 11:59:44;;;;;;;4.95;0.80;;;22.80;97.70;;;;;;4837203;29;20070;-78
2022/09/13 12:02:28;;;;;;;4.97;0.80;;;23.00;99.20;;;;;;4837323;29;20525;-78
2022/09/13 12:05:25;;;;;;;6.03;0.90;;;23.30;99.90;;;;;;4837571;29;20069;-84
2022/09/13 12:07:53;;;;;;;8.95;0.88;;;23.40;99.90;;;;;;4832225;29;20069;-85
2022/09/13 12:10:32;;;;;;;6.55;0.80;;;23.60;99.90;;;;;;4836898;29;20098;-80
2022/09/13 12:13:02;;;;;;;9.35;0.93;;;23.70;99.90;;;;;;4873885;29;20116;-79
2022/09/13 12:15:42;;;;;;;5.20;0.90;;;23.70;99.90;;;;;;4924224;29;20056;-76
2022/09/13 12:18:16;;;;;;;6.55;0.82;;;23.70;99.90;;;;;;4946603;29;20507;-78
2022/09/13 12:20:50;;;;;;;;;;;23.70;99.90;;;;;;4950323;29;20090;-80
2022/09/13 12:23:43;;;;;;;7.72;0.88;;;23.50;99.90;;;;;;4949427;29;20457;-86
2022/09/13 12:26:19;;;;;;;10.90;1.30;;;23.60;99.90;;;;;;4939519;29;20146;-78
2022/09/13 12:28:50;;;;;;;4.57;0.80;;;23.50;99.90;;;;;;4949582;29;20517;-85
2022/09/13 12:31:20;;;;;;;10.63;1.35;;;23.60;99.90;;;;;;4947631;29;20263;-78
2022/09/13 12:33:47;;;;;;;5.03;1.00;;;23.50;99.90;;;;;;5007411;28;20099;-80
2022/09/13 12:36:48;;;;;;;8.50;1.08;;;23.00;99.90;;;;;;5029793;28;20043;-77
2022/09/13 12:39:23;;;;;;;9.93;0.90;;;23.30;99.90;;;;;;5029478;28;20049;-79
2022/09/13 12:42:02;;;;;;;8.40;1.20;;;23.30;99.90;;;;;;5029880;28;20156;-78
2022/09/13 12:44:45;;;;;;;7.00;1.02;;;23.00;99.90;;;;;;5030057;28;20411;-78
2022/09/13 12:47:29;;;;;;;9.23;0.95;;;22.70;99.90;;;;;;5029680;28;20092;-76
2022/09/13 12:50:40;;;;;;;9.35;1.35;;;22.90;99.90;;;;;;5029946;28;20060;-77
2022/09/13 12:53:46;;;;;;;5.15;0.88;;;23.10;99.90;;;;;;5029186;28;20045;-76
2022/09/13 12:56:15;;;;;;;8.52;0.90;;;23.20;99.90;;;;;;5029805;28;20049;-75
2022/09/13 12:58:50;;;;;;;5.50;0.98;;;23.20;99.90;;;;;;5029307;28;20485;-78
2022/09/13 13:01:20;;;;;;;10.73;1.55;;;23.00;99.90;;;;;;5032757;28;20041;-78
2022/09/13 13:03:58;;;;;;;10.60;1.75;;;23.00;99.90;;;;;;5033499;28;20076;-81
2022/09/13 13:06:35;;;;;;;8.15;1.08;;;23.00;99.90;;;;;;5033615;28;20068;-78
2022/09/13 13:09:06;;;;;;;6.20;0.90;;;23.10;99.90;;;;;;5034560;28;20065;-80
2022/09/13 13:11:45;;;;;;;5.93;0.90;;;23.20;99.90;;;;;;5033199;28;20034;-80
2022/09/13 13:14:27;;;;;;;11.40;1.30;;;23.40;99.90;;;;;;5033462;28;20124;-78
2022/09/13 13:16:52;;;;;;;9.55;1.08;;;23.50;99.90;;;;;;5033605;28;20068;-79
2022/09/13 13:19:31;;;;;;;11.40;1.30;;;23.40;99.90;;;;;;5034311;28;20469;-77